Time;durP1;ratioP1;P1;durP2;ratioP2;P2;SDS_P1;SDS_P2;PMS_P1;PMS_P2;Temp;Humidity;BMP_temperature;BMP_pressure;BME280_temperature;BME280_humidity;BME280_pressure;Samples;Min_cycle;Max_cycle;Signal;HPM_P1;HPM_P2
2021/07/08 00:02:07;;;;;;;1.73;1.25;;;18.50;1.00;;;;;;5025840;28;20035;-74
2021/07/08 00:04:33;;;;;;;3.28;1.40;;;18.50;1.00;;;;;;5022662;28;20029;-74
2021/07/08 00:06:59;;;;;;;1.75;1.20;;;18.50;1.00;;;;;;5043129;28;20036;-74
2021/07/08 00:09:25;;;;;;;4.32;1.60;;;18.40;1.00;;;;;;5033604;28;20018;-73
2021/07/08 00:11:50;;;;;;;4.10;1.40;;;18.40;1.00;;;;;;5043103;28;20056;-74
2021/07/08 00:14:16;;;;;;;1.58;1.40;;;18.50;1.00;;;;;;5035534;28;20075;-75
2021/07/08 00:16:41;;;;;;;1.45;1.35;;;18.50;1.00;;;;;;5049382;28;20021;-73
2021/07/08 00:19:08;;;;;;;3.22;0.95;;;18.50;1.00;;;;;;5038413;28;20022;-73
2021/07/08 00:21:34;;;;;;;2.33;1.42;;;18.50;1.00;;;;;;5039446;28;20502;-72
2021/07/08 00:23:59;;;;;;;2.80;1.20;;;18.50;1.00;;;;;;5043095;28;20064;-74
2021/07/08 00:26:25;;;;;;;3.63;1.80;;;18.50;1.00;;;;;;5050084;28;20021;-73
2021/07/08 00:28:50;;;;;;;4.75;1.60;;;18.50;1.00;;;;;;5046382;28;20493;-73
2021/07/08 00:31:16;;;;;;;3.20;1.50;;;18.50;1.00;;;;;;5048558;28;20025;-74
2021/07/08 00:33:42;;;;;;;5.18;1.55;;;18.50;1.00;;;;;;5049337;28;20112;-74
2021/07/08 00:36:08;;;;;;;2.92;1.77;;;18.60;1.00;;;;;;5047431;28;20025;-74
2021/07/08 00:38:34;;;;;;;4.32;2.03;;;18.50;1.00;;;;;;5049394;28;20068;-74
2021/07/08 00:40:59;;;;;;;3.97;2.00;;;18.70;1.00;;;;;;5042689;28;20034;-73
2021/07/08 00:43:29;;;;;;;4.70;2.10;;;18.60;1.00;;;;;;5045172;28;20506;-73
2021/07/08 00:45:55;;;;;;;2.00;1.75;;;18.40;1.00;;;;;;5046601;28;20025;-73
2021/07/08 00:48:20;;;;;;;2.70;2.25;;;18.40;1.00;;;;;;5046361;28;20021;-74
2021/07/08 00:50:46;;;;;;;2.83;2.28;;;18.40;1.00;;;;;;5042955;28;20037;-73
2021/07/08 00:53:17;;;;;;;2.72;2.20;;;18.50;1.00;;;;;;5038623;28;20021;-74
2021/07/08 00:55:46;;;;;;;3.55;2.17;;;18.40;1.00;;;;;;5046214;28;20032;-74
2021/07/08 00:58:15;;;;;;;7.60;2.50;;;18.30;1.00;;;;;;5046970;28;20032;-74
2021/07/08 01:00:41;;;;;;;2.30;2.10;;;18.40;1.00;;;;;;5045877;28;20057;-74
2021/07/08 01:03:09;;;;;;;3.05;2.20;;;18.60;1.00;;;;;;5043745;28;20048;-73
2021/07/08 01:05:44;;;;;;;3.83;2.40;;;18.50;1.00;;;;;;5046082;28;20075;-72
2021/07/08 01:08:11;;;;;;;5.93;2.45;;;18.40;1.00;;;;;;5029260;28;20025;-73
2021/07/08 01:10:37;;;;;;;2.55;2.30;;;18.30;1.00;;;;;;5046056;28;20029;-74
2021/07/08 01:13:03;;;;;;;5.43;2.65;;;18.30;1.00;;;;;;5045748;28;20029;-73
2021/07/08 01:15:30;;;;;;;7.80;2.90;;;18.40;1.00;;;;;;5045796;28;20025;-75
2021/07/08 01:17:56;;;;;;;5.15;2.28;;;18.70;1.00;;;;;;5029710;28;20036;-74
2021/07/08 01:20:25;;;;;;;5.07;2.60;;;18.60;1.00;;;;;;5037993;28;20021;-73
2021/07/08 01:22:57;;;;;;;4.18;2.70;;;18.60;1.00;;;;;;5040254;28;20096;-73
2021/07/08 01:25:28;;;;;;;2.83;2.42;;;18.60;1.00;;;;;;5036930;28;20013;-73
2021/07/08 01:27:55;;;;;;;2.78;1.98;;;18.70;1.00;;;;;;5050531;28;20032;-75
2021/07/08 01:30:21;;;;;;;4.43;2.10;;;18.60;1.00;;;;;;5036419;28;20104;-74
2021/07/08 01:32:47;;;;;;;3.55;2.20;;;18.50;1.00;;;;;;5051788;28;20667;-73
2021/07/08 01:35:14;;;;;;;2.80;2.22;;;18.60;1.00;;;;;;5036506;28;20049;-74
2021/07/08 01:37:40;;;;;;;1.85;1.75;;;18.40;1.00;;;;;;5050441;28;20025;-73
2021/07/08 01:40:08;;;;;;;2.28;2.08;;;18.20;1.00;;;;;;5037658;28;20021;-73
2021/07/08 01:42:34;;;;;;;6.45;2.78;;;18.20;1.00;;;;;;5046696;28;20032;-73
2021/07/08 01:45:00;;;;;;;2.45;1.70;;;18.10;1.00;;;;;;5045444;28;20025;-72
2021/07/08 01:47:25;;;;;;;2.40;1.80;;;18.10;1.00;;;;;;5052205;28;20036;-74
2021/07/08 01:49:52;;;;;;;3.60;2.00;;;18.10;1.00;;;;;;5045514;28;20623;-73
2021/07/08 01:52:17;;;;;;;3.92;2.63;;;18.00;1.00;;;;;;5043203;28;20125;-73
2021/07/08 01:54:43;;;;;;;4.65;2.42;;;18.00;1.00;;;;;;5039176;28;20655;-74
2021/07/08 01:57:09;;;;;;;2.40;2.20;;;18.00;1.00;;;;;;5030365;28;20497;-73
2021/07/08 01:59:35;;;;;;;2.53;1.80;;;18.00;1.00;;;;;;5037634;28;20513;-73
2021/07/08 02:02:00;;;;;;;2.67;1.90;;;18.00;1.00;;;;;;5040910;28;20029;-72
2021/07/08 02:04:26;;;;;;;3.83;2.17;;;17.90;1.00;;;;;;5045534;28;20021;-74
2021/07/08 02:06:52;;;;;;;2.47;2.10;;;17.90;1.00;;;;;;5043265;28;20418;-74
2021/07/08 02:09:17;;;;;;;2.53;2.13;;;17.80;1.00;;;;;;5029046;28;20083;-74
2021/07/08 02:11:43;;;;;;;3.83;2.15;;;17.80;1.00;;;;;;5045657;28;20036;-74
2021/07/08 02:14:09;;;;;;;10.82;2.25;;;17.70;1.00;;;;;;5045689;28;20051;-74
2021/07/08 02:16:35;;;;;;;6.03;2.33;;;17.70;1.00;;;;;;5031617;28;20029;-73
2021/07/08 02:19:01;;;;;;;5.22;2.20;;;17.70;1.00;;;;;;5037400;28;20029;-73
2021/07/08 02:21:27;;;;;;;3.33;2.40;;;17.70;1.00;;;;;;5035079;28;20031;-74
2021/07/08 02:23:52;;;;;;;3.42;2.30;;;17.70;1.00;;;;;;5046915;28;20029;-72
2021/07/08 02:26:18;;;;;;;4.25;2.53;;;17.70;1.00;;;;;;5044640;28;20025;-75
2021/07/08 02:28:44;;;;;;;4.45;2.67;;;17.70;1.00;;;;;;5030144;28;20018;-73
2021/07/08 02:31:10;;;;;;;3.67;2.33;;;17.70;1.00;;;;;;5026805;28;20032;-73
2021/07/08 02:33:36;;;;;;;5.60;2.10;;;17.70;1.00;;;;;;5049771;28;20021;-73
2021/07/08 02:36:05;;;;;;;8.40;2.60;;;17.70;1.00;;;;;;5043710;28;20024;-74
2021/07/08 02:38:32;;;;;;;4.22;2.53;;;17.70;1.00;;;;;;5051937;28;20025;-74
2021/07/08 02:40:57;;;;;;;3.05;2.67;;;17.70;1.00;;;;;;5041133;28;20028;-73
2021/07/08 02:43:23;;;;;;;4.20;2.38;;;17.70;1.00;;;;;;5044517;28;20394;-74
2021/07/08 02:45:49;;;;;;;4.28;2.75;;;17.70;1.00;;;;;;5023126;28;20113;-73
2021/07/08 02:48:18;;;;;;;4.47;2.70;;;17.70;1.00;;;;;;5052832;28;20697;-74
2021/07/08 02:50:46;;;;;;;4.07;3.08;;;17.70;1.00;;;;;;5043010;28;20039;-73
2021/07/08 02:53:13;;;;;;;3.85;2.65;;;17.60;1.00;;;;;;5032532;28;20029;-73
2021/07/08 02:55:39;;;;;;;6.78;3.65;;;17.70;1.00;;;;;;5032979;28;20033;-76
2021/07/08 02:58:05;;;;;;;5.65;3.08;;;17.70;1.00;;;;;;5036413;28;20029;-74
2021/07/08 03:00:31;;;;;;;3.33;2.40;;;17.70;1.00;;;;;;5037168;28;20043;-74
2021/07/08 03:02:57;;;;;;;4.55;3.13;;;17.70;1.00;;;;;;5043957;28;20393;-74
2021/07/08 03:05:23;;;;;;;5.07;3.08;;;17.70;1.00;;;;;;5034790;28;20029;-73
2021/07/08 03:07:49;;;;;;;3.58;2.65;;;17.60;1.00;;;;;;5038932;28;20074;-74
2021/07/08 03:10:19;;;;;;;4.70;3.17;;;17.60;1.00;;;;;;5039645;28;20036;-73
2021/07/08 03:12:45;;;;;;;5.57;3.05;;;17.60;1.00;;;;;;5040763;28;20029;-76
2021/07/08 03:15:13;;;;;;;6.47;3.53;;;17.80;1.00;;;;;;5044909;28;20021;-74
2021/07/08 03:17:39;;;;;;;5.20;2.85;;;17.70;1.00;;;;;;5032139;28;20399;-74
2021/07/08 03:20:07;;;;;;;6.38;2.70;;;17.70;1.00;;;;;;5016467;28;20159;-74
2021/07/08 03:22:33;;;;;;;4.25;2.83;;;17.70;1.00;;;;;;5025776;28;20052;-73
2021/07/08 03:24:58;;;;;;;4.07;2.67;;;17.60;1.00;;;;;;5040280;28;20029;-74
2021/07/08 03:27:24;;;;;;;3.20;2.85;;;17.70;1.00;;;;;;5032157;28;20045;-74
2021/07/08 03:29:50;;;;;;;4.75;2.30;;;17.80;1.00;;;;;;5032448;28;20116;-74
2021/07/08 03:32:15;;;;;;;10.60;2.70;;;17.90;1.00;;;;;;5039174;28;20406;-74
2021/07/08 03:34:41;;;;;;;5.13;2.85;;;17.90;1.00;;;;;;5048439;28;20395;-72
2021/07/08 03:37:06;;;;;;;6.68;2.47;;;18.00;1.00;;;;;;5046356;28;20076;-72
2021/07/08 03:39:32;;;;;;;2.55;2.35;;;17.90;1.00;;;;;;5048666;28;20021;-73
2021/07/08 03:41:58;;;;;;;4.25;2.85;;;17.70;1.00;;;;;;5038123;28;20057;-74
2021/07/08 03:44:23;;;;;;;4.75;2.83;;;17.70;1.00;;;;;;5043518;28;20036;-74
2021/07/08 03:46:49;;;;;;;4.00;2.65;;;17.60;1.00;;;;;;5036280;28;20110;-74
2021/07/08 03:49:15;;;;;;;5.03;3.20;;;17.60;1.00;;;;;;5043388;28;20474;-74
2021/07/08 03:51:41;;;;;;;3.83;3.00;;;17.50;1.00;;;;;;5026525;28;20079;-74
2021/07/08 03:54:06;;;;;;;4.95;3.35;;;17.60;1.00;;;;;;5043775;28;20029;-75
2021/07/08 03:56:32;;;;;;;7.93;3.58;;;17.80;1.00;;;;;;5039949;28;20479;-75
2021/07/08 03:58:58;;;;;;;6.30;3.17;;;18.00;1.00;;;;;;5041827;28;20103;-74
2021/07/08 04:01:25;;;;;;;7.40;3.45;;;18.10;1.00;;;;;;5028082;28;20060;-72
2021/07/08 04:03:51;;;;;;;8.50;4.22;;;18.10;1.00;;;;;;5024241;28;20032;-74
2021/07/08 04:06:17;;;;;;;7.60;3.42;;;18.00;1.00;;;;;;5027073;28;20096;-74
2021/07/08 04:08:42;;;;;;;6.85;3.78;;;18.00;1.00;;;;;;5025080;28;20062;-74
2021/07/08 04:11:08;;;;;;;7.40;3.60;;;17.90;1.00;;;;;;5044795;28;20099;-74
2021/07/08 04:13:33;;;;;;;6.40;3.60;;;17.80;1.00;;;;;;5043193;28;20029;-73
2021/07/08 04:16:00;;;;;;;6.18;3.35;;;17.80;1.00;;;;;;5045730;28;20033;-74
2021/07/08 04:18:26;;;;;;;5.13;4.05;;;17.80;1.00;;;;;;5042916;28;20498;-74
2021/07/08 04:20:51;;;;;;;7.15;4.60;;;18.00;1.00;;;;;;5031598;28;20025;-74
2021/07/08 04:23:17;;;;;;;5.18;4.57;;;18.20;1.00;;;;;;5049838;28;20028;-74
2021/07/08 04:25:43;;;;;;;6.07;4.07;;;18.20;1.00;;;;;;5058911;28;20025;-73
2021/07/08 04:28:11;;;;;;;7.20;3.72;;;18.10;1.00;;;;;;5025040;28;20601;-74
2021/07/08 04:30:38;;;;;;;7.18;4.13;;;18.00;1.00;;;;;;5031910;28;20025;-73
2021/07/08 04:33:05;;;;;;;6.03;3.50;;;18.00;1.00;;;;;;5031872;28;20025;-74
2021/07/08 04:35:38;;;;;;;6.10;3.20;;;18.20;1.00;;;;;;5013543;28;20129;-73
2021/07/08 04:38:08;;;;;;;4.10;3.38;;;18.20;1.00;;;;;;5026480;28;20033;-73
2021/07/08 04:40:35;;;;;;;6.72;3.65;;;18.30;1.00;;;;;;5011521;28;20033;-72
2021/07/08 04:43:00;;;;;;;4.38;3.05;;;18.40;1.00;;;;;;5031017;28;20021;-74
2021/07/08 04:45:26;;;;;;;3.92;3.00;;;18.40;1.00;;;;;;5046106;28;20021;-73
2021/07/08 04:47:52;;;;;;;5.47;3.65;;;18.30;1.00;;;;;;5016770;28;20037;-73
2021/07/08 04:50:20;;;;;;;4.65;2.80;;;18.30;1.00;;;;;;5045198;28;20029;-73
2021/07/08 04:52:47;;;;;;;8.48;3.38;;;18.10;1.00;;;;;;5027601;28;20018;-74
2021/07/08 04:55:13;;;;;;;5.40;2.83;;;18.00;1.00;;;;;;5043231;28;20017;-73
2021/07/08 04:57:39;;;;;;;5.97;3.30;;;17.90;1.00;;;;;;5039264;28;20037;-73
2021/07/08 05:00:08;;;;;;;5.20;2.90;;;18.00;1.00;;;;;;5043594;28;20031;-73
2021/07/08 05:02:37;;;;;;;5.57;2.75;;;18.00;1.00;;;;;;5040944;28;20029;-74
2021/07/08 05:05:04;;;;;;;6.00;3.15;;;17.90;1.00;;;;;;5028293;28;20447;-72
2021/07/08 05:07:29;;;;;;;9.63;4.15;;;17.90;1.00;;;;;;5039754;28;20053;-73
2021/07/08 05:09:55;;;;;;;4.25;3.08;;;18.20;1.00;;;;;;5053250;28;20044;-74
2021/07/08 05:12:20;;;;;;;7.07;3.83;;;18.10;1.00;;;;;;5042521;28;20048;-73
2021/07/08 05:14:46;;;;;;;5.75;3.17;;;18.10;1.00;;;;;;5026726;28;20029;-74
2021/07/08 05:17:12;;;;;;;4.55;3.03;;;18.20;1.00;;;;;;5047066;28;20139;-73
2021/07/08 05:19:38;;;;;;;6.57;3.88;;;18.50;1.00;;;;;;5034806;28;20506;-75
2021/07/08 05:22:03;;;;;;;4.78;3.97;;;18.60;1.00;;;;;;5046952;28;20029;-75
2021/07/08 05:24:29;;;;;;;5.63;3.08;;;18.60;1.00;;;;;;5039742;28;20029;-72
2021/07/08 05:26:55;;;;;;;5.65;3.40;;;18.60;1.00;;;;;;5028158;28;20112;-73
2021/07/08 05:29:22;;;;;;;6.47;3.90;;;18.60;1.00;;;;;;5041084;28;20096;-74
2021/07/08 05:31:49;;;;;;;6.30;3.90;;;18.40;1.00;;;;;;5027993;28;20079;-73
2021/07/08 05:34:15;;;;;;;7.32;3.83;;;18.40;1.00;;;;;;5024796;28;20025;-74
2021/07/08 05:36:40;;;;;;;8.40;6.28;;;18.40;1.00;;;;;;5046036;28;20113;-73
2021/07/08 05:39:06;;;;;;;6.47;3.90;;;18.30;1.00;;;;;;5043958;28;20032;-74
2021/07/08 05:41:32;;;;;;;6.93;3.83;;;18.10;1.00;;;;;;5045885;28;20079;-74
2021/07/08 05:43:57;;;;;;;4.88;3.50;;;18.10;1.00;;;;;;5041880;28;20508;-72
2021/07/08 05:46:23;;;;;;;10.13;6.45;;;18.10;1.00;;;;;;5047458;28;20107;-75
2021/07/08 05:48:49;;;;;;;9.68;4.78;;;18.10;1.00;;;;;;5023890;28;20053;-74
2021/07/08 05:51:15;;;;;;;7.55;3.40;;;18.10;1.00;;;;;;5054062;28;20025;-74
2021/07/08 05:53:40;;;;;;;6.05;3.40;;;18.10;1.00;;;;;;5021852;28;20057;-75
2021/07/08 05:56:06;;;;;;;7.47;3.45;;;18.10;1.00;;;;;;5053831;28;20029;-74
2021/07/08 05:58:32;;;;;;;7.50;3.70;;;18.20;1.00;;;;;;5043353;28;20095;-74
2021/07/08 06:00:58;;;;;;;5.00;2.90;;;18.30;1.00;;;;;;5030258;28;20032;-76
2021/07/08 06:03:24;;;;;;;3.20;2.65;;;18.30;1.00;;;;;;5045159;28;20025;-75
2021/07/08 06:05:50;;;;;;;2.85;2.28;;;18.30;1.00;;;;;;5045518;28;20029;-75
2021/07/08 06:08:15;;;;;;;3.70;2.50;;;18.40;1.00;;;;;;5044580;28;20021;-74
2021/07/08 06:10:41;;;;;;;4.05;2.65;;;18.40;1.00;;;;;;5046892;28;20037;-75
2021/07/08 06:13:08;;;;;;;7.97;2.75;;;18.40;1.00;;;;;;5027276;28;20028;-73
2021/07/08 06:15:33;;;;;;;5.90;3.47;;;18.40;1.00;;;;;;5049692;28;20028;-74
2021/07/08 06:17:59;;;;;;;3.88;2.40;;;18.40;1.00;;;;;;5044016;28;20079;-77
2021/07/08 06:20:25;;;;;;;2.30;2.10;;;18.50;1.00;;;;;;5053052;28;20509;-75
2021/07/08 06:22:51;;;;;;;7.10;3.35;;;18.60;1.00;;;;;;5023706;28;20483;-74
2021/07/08 06:25:17;;;;;;;4.07;2.95;;;18.60;1.00;;;;;;5053005;28;20083;-75
2021/07/08 06:27:43;;;;;;;5.20;2.75;;;18.60;1.00;;;;;;5018153;28;20468;-74
2021/07/08 06:30:09;;;;;;;5.38;2.72;;;18.70;1.00;;;;;;5044590;28;20044;-73
2021/07/08 06:32:35;;;;;;;3.13;2.20;;;18.80;1.00;;;;;;5043918;28;20033;-73
2021/07/08 06:35:02;;;;;;;9.07;2.20;;;18.80;1.00;;;;;;5015215;28;20044;-74
2021/07/08 06:37:28;;;;;;;5.95;2.38;;;18.80;1.00;;;;;;5043304;28;20112;-73
2021/07/08 06:39:53;;;;;;;8.98;2.60;;;19.20;1.00;;;;;;5040571;28;20113;-74
2021/07/08 06:42:20;;;;;;;9.65;3.13;;;19.40;1.00;;;;;;5034574;28;20044;-73
2021/07/08 06:44:45;;;;;;;4.05;2.53;;;19.30;1.00;;;;;;5032112;28;20439;-73
2021/07/08 06:47:15;;;;;;;3.42;3.08;;;19.20;1.00;;;;;;5022622;28;20048;-73
2021/07/08 06:49:40;;;;;;;5.40;3.40;;;19.00;1.00;;;;;;5049457;28;20017;-73
2021/07/08 06:52:06;;;;;;;6.53;2.92;;;19.00;1.00;;;;;;5020743;28;20028;-74
2021/07/08 06:54:32;;;;;;;4.55;2.40;;;19.20;1.00;;;;;;5040583;28;20061;-73
2021/07/08 06:56:58;;;;;;;6.35;2.55;;;19.40;1.00;;;;;;5016887;28;20029;-74
2021/07/08 06:59:24;;;;;;;5.10;3.70;;;19.40;1.00;;;;;;5047546;28;20048;-73
2021/07/08 07:01:49;;;;;;;9.60;2.42;;;19.40;1.00;;;;;;5039782;28;20087;-73
2021/07/08 07:04:15;;;;;;;6.70;2.90;;;19.40;1.00;;;;;;5028163;28;20074;-73
2021/07/08 07:06:40;;;;;;;11.93;3.25;;;19.30;1.00;;;;;;5024861;28;20075;-74
2021/07/08 07:09:06;;;;;;;9.43;3.00;;;19.10;1.00;;;;;;5025970;28;20104;-74
2021/07/08 07:11:32;;;;;;;7.10;2.90;;;19.10;1.00;;;;;;5044101;28;20367;-73
2021/07/08 07:13:57;;;;;;;5.70;3.20;;;19.00;1.00;;;;;;5019974;28;20043;-75
2021/07/08 07:16:23;;;;;;;2.53;2.33;;;19.00;1.00;;;;;;5024753;28;20112;-73
2021/07/08 07:18:49;;;;;;;3.60;2.83;;;19.10;1.00;;;;;;5040318;28;20540;-74
2021/07/08 07:21:15;;;;;;;3.47;2.88;;;19.40;1.00;;;;;;5035172;28;20096;-74
2021/07/08 07:23:44;;;;;;;4.07;2.83;;;19.70;1.00;;;;;;5043761;28;20402;-74
2021/07/08 07:26:11;;;;;;;3.65;2.88;;;19.60;1.00;;;;;;5047122;28;20021;-74
2021/07/08 07:28:37;;;;;;;2.63;2.42;;;19.60;1.00;;;;;;5040373;28;20017;-74
2021/07/08 07:31:04;;;;;;;6.53;3.25;;;19.70;1.00;;;;;;5046688;28;20028;-73
2021/07/08 07:33:30;;;;;;;6.88;3.10;;;19.80;1.00;;;;;;5040379;28;20103;-73
2021/07/08 07:35:56;;;;;;;10.45;3.40;;;20.10;1.00;;;;;;5028075;28;20081;-74
2021/07/08 07:38:22;;;;;;;5.45;3.00;;;20.40;1.00;;;;;;5043598;28;20025;-73
2021/07/08 07:40:47;;;;;;;4.55;2.47;;;20.70;1.00;;;;;;5037086;28;20483;-74
2021/07/08 07:43:14;;;;;;;5.82;2.50;;;20.50;1.00;;;;;;5043410;28;20021;-73
2021/07/08 07:45:40;;;;;;;5.22;2.50;;;20.60;1.00;;;;;;5038467;28;20041;-74
2021/07/08 07:48:07;;;;;;;6.75;3.60;;;20.80;1.00;;;;;;5025593;28;20044;-74
2021/07/08 07:50:33;;;;;;;2.60;2.40;;;20.80;1.00;;;;;;5041220;28;20494;-73
2021/07/08 07:52:59;;;;;;;3.90;2.70;;;20.70;99.90;;;;;;5040501;28;20033;-74
2021/07/08 07:55:28;;;;;;;3.15;2.53;;;20.70;1.00;;;;;;5044227;28;20105;-74
2021/07/08 07:57:59;;;;;;;3.80;2.85;;;20.80;1.00;;;;;;5036646;28;20110;-74
2021/07/08 08:00:26;;;;;;;4.38;2.70;;;20.60;1.00;;;;;;5043661;28;20104;-74
2021/07/08 08:02:52;;;;;;;6.63;2.95;;;20.50;1.00;;;;;;5013271;28;20450;-74
2021/07/08 08:05:38;;;;;;;4.60;2.75;;;20.70;1.00;;;;;;5013755;28;20438;-74
2021/07/08 08:10:49;;;;;;;4.05;3.30;;;20.80;99.90;;;;;;5038209;28;20141;-74
2021/07/08 08:13:15;;;;;;;5.85;3.67;;;20.70;1.00;;;;;;5043126;28;20067;-74
2021/07/08 08:15:43;;;;;;;3.88;3.00;;;20.30;1.00;;;;;;5040785;28;20026;-74
2021/07/08 08:18:09;;;;;;;4.32;3.13;;;20.30;1.00;;;;;;5048818;28;20025;-74
2021/07/08 08:20:35;;;;;;;6.60;3.30;;;20.30;1.00;;;;;;5042374;28;20026;-73
2021/07/08 08:23:00;;;;;;;3.67;3.05;;;20.20;1.00;;;;;;5038127;28;20017;-74
2021/07/08 08:25:26;;;;;;;4.22;3.67;;;20.30;1.00;;;;;;5051069;28;20025;-74
2021/07/08 08:27:51;;;;;;;6.68;3.05;;;20.70;1.00;;;;;;5048453;28;20021;-74
2021/07/08 08:30:17;;;;;;;7.57;3.65;;;21.10;99.90;;;;;;5033085;28;20034;-74
2021/07/08 08:32:44;;;;;;;5.45;3.10;;;21.10;99.90;;;;;;5039310;28;20033;-73
2021/07/08 08:35:11;;;;;;;5.53;3.67;;;21.00;99.90;;;;;;5018023;28;20490;-73
2021/07/08 08:37:37;;;;;;;4.82;3.42;;;21.30;99.90;;;;;;5043962;28;20099;-73
2021/07/08 08:40:04;;;;;;;4.63;3.58;;;21.50;99.90;;;;;;5044859;28;20025;-74
2021/07/08 08:42:31;;;;;;;6.82;3.22;;;21.40;99.90;;;;;;5046217;28;20055;-74
2021/07/08 08:44:56;;;;;;;3.30;2.97;;;21.80;99.90;;;;;;5045749;28;20057;-74
2021/07/08 08:47:23;;;;;;;3.83;2.40;;;22.20;99.90;;;;;;5046536;28;20057;-73
2021/07/08 08:49:53;;;;;;;4.53;2.65;;;23.10;99.90;;;;;;5046795;28;20025;-73
2021/07/08 08:52:19;;;;;;;4.55;2.17;;;22.80;99.90;;;;;;5046391;28;20501;-74
2021/07/08 08:54:45;;;;;;;5.53;3.60;;;22.50;99.90;;;;;;5030187;28;20389;-74
2021/07/08 08:57:11;;;;;;;4.43;3.35;;;23.10;99.90;;;;;;5046228;28;20028;-74
2021/07/08 08:59:36;;;;;;;6.43;4.75;;;23.10;99.90;;;;;;5043444;28;20033;-73
2021/07/08 09:02:13;;;;;;;5.05;3.00;;;23.60;99.90;;;;;;5038287;28;20028;-72
2021/07/08 09:04:39;;;;;;;4.05;3.65;;;23.70;99.90;;;;;;5036759;28;20052;-76
2021/07/08 09:07:32;;;;;;;3.75;2.58;;;23.90;99.90;;;;;;5043419;28;20029;-75
2021/07/08 09:09:59;;;;;;;3.25;2.28;;;24.20;99.90;;;;;;5054427;28;20521;-77
2021/07/08 09:12:26;;;;;;;4.18;2.70;;;23.60;99.90;;;;;;5044391;28;20044;-76
2021/07/08 09:15:13;;;;;;;6.53;3.58;;;23.10;99.90;;;;;;5035999;28;20486;-75
2021/07/08 09:17:43;;;;;;;4.00;3.10;;;22.80;99.90;;;;;;5039192;28;20029;-76
2021/07/08 09:20:12;;;;;;;7.38;3.50;;;22.80;99.90;;;;;;5032414;28;20021;-76
2021/07/08 09:22:39;;;;;;;6.18;2.97;;;23.20;99.90;;;;;;5037494;28;20609;-78
2021/07/08 09:25:25;;;;;;;3.97;2.47;;;23.30;99.90;;;;;;5034494;28;20503;-77
2021/07/08 09:28:16;;;;;;;8.98;3.67;;;22.70;99.90;;;;;;5051177;28;20025;-76
2021/07/08 09:30:43;;;;;;;;;;;22.80;99.90;;;;;;5040133;28;20022;-75
2021/07/08 09:33:29;;;;;;;8.25;3.38;;;22.70;99.90;;;;;;5033571;28;19982;-76
2021/07/08 09:36:11;;;;;;;18.13;3.80;;;22.40;99.90;;;;;;5043838;28;20051;-75
2021/07/08 09:38:38;;;;;;;4.07;3.67;;;22.70;99.90;;;;;;5034054;28;20029;-76
2021/07/08 09:41:13;;;;;;;5.18;3.20;;;22.80;99.90;;;;;;5014916;28;20033;-75
2021/07/08 09:43:39;;;;;;;4.53;2.65;;;22.90;99.90;;;;;;5038752;28;20095;-73
2021/07/08 09:46:06;;;;;;;4.90;3.38;;;22.80;99.90;;;;;;4997307;28;20029;-74
2021/07/08 09:48:32;;;;;;;6.50;3.05;;;22.70;99.90;;;;;;5042057;28;20028;-73
2021/07/08 09:50:58;;;;;;;3.78;2.95;;;22.60;99.90;;;;;;5044869;28;20021;-73
2021/07/08 09:53:25;;;;;;;4.35;2.70;;;22.50;99.90;;;;;;5037980;28;20037;-74
2021/07/08 09:58:51;;;;;;;8.27;3.22;;;22.50;99.90;;;;;;5017417;28;20542;-73
2021/07/08 10:01:16;;;;;;;2.88;2.55;;;22.90;99.90;;;;;;5015093;28;20475;-75
2021/07/08 10:03:48;;;;;;;7.10;2.88;;;23.10;99.90;;;;;;5043481;28;20079;-74
2021/07/08 10:06:14;;;;;;;3.63;2.10;;;22.80;99.90;;;;;;5023618;28;20108;-73
2021/07/08 10:08:41;;;;;;;4.57;2.88;;;22.60;99.90;;;;;;5045551;28;20044;-74
2021/07/08 10:11:11;;;;;;;3.75;2.30;;;22.70;99.90;;;;;;5047734;28;20021;-74
2021/07/08 10:13:39;;;;;;;3.42;3.13;;;22.20;99.90;;;;;;5045007;28;20080;-74
2021/07/08 10:16:05;;;;;;;3.55;2.70;;;21.90;99.90;;;;;;5049157;28;20130;-73
2021/07/08 10:18:35;;;;;;;4.28;2.42;;;22.00;99.90;;;;;;5044744;28;20064;-74
2021/07/08 10:21:01;;;;;;;4.43;2.40;;;22.10;99.90;;;;;;5033107;28;20379;-74
2021/07/08 10:23:32;;;;;;;2.70;2.50;;;22.50;99.90;;;;;;5029264;28;20064;-73
2021/07/08 10:25:59;;;;;;;5.03;3.22;;;22.90;99.90;;;;;;5043073;28;20111;-78
2021/07/08 10:28:25;;;;;;;6.90;2.75;;;23.70;99.90;;;;;;5042663;28;20405;-79
2021/07/08 10:30:51;;;;;;;5.55;2.13;;;23.90;99.90;;;;;;5035777;28;20052;-78
2021/07/08 10:33:20;;;;;;;2.80;2.33;;;23.80;99.90;;;;;;5063944;28;20059;-77
2021/07/08 10:35:48;;;;;;;2.50;2.30;;;24.30;99.90;;;;;;5059702;28;20032;-79
2021/07/08 10:38:34;;;;;;;2.75;2.30;;;24.30;99.90;;;;;;5039684;28;20279;-77
2021/07/08 10:41:02;;;;;;;4.80;2.38;;;24.60;99.90;;;;;;5033006;28;20025;-79
2021/07/08 10:43:41;;;;;;;4.70;2.38;;;24.60;99.90;;;;;;5049613;28;20017;-78
2021/07/08 10:46:12;;;;;;;4.72;2.38;;;24.50;99.90;;;;;;5047622;28;20013;-78
2021/07/08 10:48:49;;;;;;;2.97;1.73;;;24.10;99.90;;;;;;5035962;28;20532;-79
2021/07/08 10:51:39;;;;;;;2.78;2.13;;;23.90;99.90;;;;;;5043165;28;20116;-77
2021/07/08 10:54:26;;;;;;;21.13;8.25;;;23.90;99.90;;;;;;5040950;28;20029;-78
2021/07/08 10:56:53;;;;;;;2.40;2.20;;;23.80;99.90;;;;;;5028626;28;20021;-79
2021/07/08 10:59:19;;;;;;;2.33;1.70;;;23.30;99.90;;;;;;5023565;28;20026;-78
2021/07/08 11:01:48;;;;;;;5.78;2.10;;;23.10;99.90;;;;;;5006450;28;20026;-78
2021/07/08 11:04:15;;;;;;;3.47;1.50;;;22.80;99.90;;;;;;5038829;28;20108;-77
2021/07/08 11:06:46;;;;;;;4.22;2.05;;;22.60;99.90;;;;;;5038051;28;20036;-77
2021/07/08 11:09:13;;;;;;;;;;;22.50;99.90;;;;;;5022202;28;20021;-78
2021/07/08 11:11:38;;;;;;;4.32;2.28;;;22.40;99.90;;;;;;5034250;28;20136;-77
2021/07/08 11:14:07;;;;;;;3.60;2.00;;;22.40;99.90;;;;;;5028005;28;20017;-79
2021/07/08 11:16:43;;;;;;;10.88;2.40;;;22.40;99.90;;;;;;5029466;28;20033;-76
2021/07/08 11:19:13;;;;;;;14.40;3.03;;;22.40;99.90;;;;;;5024154;28;20024;-76
2021/07/08 11:22:02;;;;;;;43.17;4.28;;;22.50;99.90;;;;;;5008435;28;20033;-76
2021/07/08 11:24:32;;;;;;;2.60;2.00;;;22.50;99.90;;;;;;5030734;28;20021;-76
2021/07/08 11:27:03;;;;;;;3.57;1.93;;;22.50;99.90;;;;;;5039865;28;20026;-77
2021/07/08 11:29:46;;;;;;;4.90;1.85;;;22.40;99.90;;;;;;5016903;28;20029;-77
2021/07/08 11:32:24;;;;;;;5.90;1.48;;;22.30;99.90;;;;;;5033595;28;20025;-77
2021/07/08 11:35:02;;;;;;;2.95;1.27;;;22.30;99.90;;;;;;5012017;28;20377;-77
2021/07/08 11:37:50;;;;;;;1.55;1.00;;;23.00;99.90;;;;;;5026786;28;20025;-77
2021/07/08 11:40:17;;;;;;;1.33;1.10;;;23.20;99.90;;;;;;5039122;28;20095;-77
2021/07/08 11:42:46;;;;;;;1.80;1.25;;;23.20;99.90;;;;;;5041607;28;20543;-77
2021/07/08 11:45:16;;;;;;;1.23;1.13;;;23.40;99.90;;;;;;5045340;28;20025;-77
2021/07/08 11:47:47;;;;;;;8.18;1.35;;;23.50;99.90;;;;;;5042651;28;20021;-77
2021/07/08 11:50:28;;;;;;;1.88;1.77;;;23.30;99.90;;;;;;5027590;28;20108;-77
2021/07/08 11:53:09;;;;;;;1.42;1.00;;;23.40;99.90;;;;;;5039470;28;20032;-76
2021/07/08 11:55:39;;;;;;;4.57;1.30;;;23.30;99.90;;;;;;5018798;28;20032;-76
2021/07/08 11:58:06;;;;;;;3.88;1.73;;;23.40;99.90;;;;;;5032106;28;20025;-77
2021/07/08 12:00:35;;;;;;;3.67;1.83;;;23.10;99.90;;;;;;5021334;28;20029;-77
2021/07/08 12:03:02;;;;;;;2.15;1.05;;;22.40;99.90;;;;;;5014158;28;20387;-78
2021/07/08 12:05:29;;;;;;;2.00;0.60;;;21.80;99.90;;;;;;5022269;28;20060;-78
2021/07/08 12:08:13;;;;;;;2.20;1.10;;;21.80;99.90;;;;;;5041924;28;20383;-77
2021/07/08 12:10:42;;;;;;;2.08;0.98;;;21.60;99.90;;;;;;5040450;28;20026;-76
2021/07/08 12:13:15;;;;;;;1.65;1.20;;;21.40;99.90;;;;;;5014690;28;20025;-77
2021/07/08 12:15:41;;;;;;;1.67;1.13;;;21.50;99.90;;;;;;5039657;28;20071;-76
2021/07/08 12:18:07;;;;;;;2.03;0.93;;;21.50;99.90;;;;;;5042411;28;20492;-76
2021/07/08 12:20:36;;;;;;;1.40;1.23;;;21.30;99.90;;;;;;5039439;28;20056;-76
2021/07/08 12:23:04;;;;;;;2.75;1.20;;;21.40;99.90;;;;;;5031023;28;20024;-78
2021/07/08 12:25:31;;;;;;;1.05;0.93;;;21.40;99.90;;;;;;5047528;28;20098;-78
2021/07/08 12:27:57;;;;;;;1.08;0.98;;;21.50;99.90;;;;;;5048213;28;20033;-77
2021/07/08 12:30:28;;;;;;;1.48;0.77;;;21.40;99.90;;;;;;5041118;28;20708;-77
2021/07/08 12:33:14;;;;;;;0.80;0.80;;;21.60;99.90;;;;;;5041749;28;20029;-78
2021/07/08 12:35:45;;;;;;;1.42;1.02;;;21.50;99.90;;;;;;5032035;28;20032;-77
2021/07/08 12:38:12;;;;;;;;;;;21.40;99.90;;;;;;5034783;28;20049;-77
2021/07/08 12:40:39;;;;;;;2.10;0.85;;;21.20;99.90;;;;;;5015726;28;19912;-78
2021/07/08 12:43:10;;;;;;;1.48;0.80;;;21.60;99.90;;;;;;5036127;28;20026;-76
2021/07/08 12:45:38;;;;;;;0.80;0.80;;;21.60;99.90;;;;;;5041469;28;20029;-77
2021/07/08 12:48:07;;;;;;;1.05;0.80;;;21.40;99.90;;;;;;5033729;28;20104;-77
2021/07/08 12:50:36;;;;;;;1.20;1.00;;;21.10;99.90;;;;;;5037212;28;20564;-76
2021/07/08 12:53:13;;;;;;;1.30;0.80;;;21.20;99.90;;;;;;5025099;28;20059;-77
2021/07/08 12:55:57;;;;;;;1.20;1.10;;;21.10;99.90;;;;;;5045194;28;20436;-76
2021/07/08 12:58:25;;;;;;;2.60;0.90;;;21.50;99.90;;;;;;5029445;28;20479;-77
2021/07/08 13:00:53;;;;;;;1.38;0.90;;;21.20;99.90;;;;;;5022705;28;20033;-76
2021/07/08 13:03:26;;;;;;;2.15;1.15;;;21.20;99.90;;;;;;5036052;28;20025;-76